Pahranagat National Wildlife Refuge, Nevada Weather observations

Data are for 10 minute period ending at time listed.
 Day   Time   Solar   Ave.   Ave.  Ave.  Vector  Max.   Baro.   Total    
  of    of     Rad.   Air    Rel.  Wind   Wind   Wind  Press.  Precip.   
Year   Day            Temp.  Hum.  Speed  Dir.   Gust                    
2014   (PST)  Kw/m2    F      %     mph   deg.    mph    mb.     in.     
-------------------------------------------------------------------------
 263    3:50   0.00   59.0    56    2.5     5     3.7   902.2    0.00 
 263    4:00   0.00   55.6    66    2.7   258     4.0   902.4    0.00 
 263    4:10   0.00   53.1    72    1.7   321     2.7   902.4    0.00 
 263    4:20   0.00   53.9    68    1.6   109     3.9   902.4    0.00 
 263    4:30   0.00   56.8    60    1.9    20     2.9   902.4    0.00 
 263    4:40   0.00   57.4    59    1.4   311     2.5   902.4    0.00 
 263    4:50   0.00   56.0    62    1.5   328     2.2   902.5    0.00 
 263    5:00   0.00   55.9    62    0.7    81     1.7   902.5    0.00 
 263    5:10   0.00   56.8    59    1.3    47     2.1   902.5    0.00 
 263    5:20   0.00   56.8    60    1.4   278     2.5   902.7    0.00 
 263    5:30   0.01   53.5    70    1.7   286     4.2   902.8    0.00 
 263    5:40   0.01   53.8    66    1.0    19     2.9   902.9    0.00 
 263    5:50   0.02   54.0    65    1.8   326     2.9   902.9    0.00 
 263    6:00   0.03   53.2    67    0.6     6     2.0   903.1    0.00 
 263    6:10   0.07   56.3    62    2.5   358     3.6   903.2    0.00 
 263    6:20   0.10   59.7    57    3.4   356     4.5   903.1    0.00 
 263    6:30   0.12   63.7    49    2.4    15     3.2   903.2    0.00 
 263    6:40   0.15   67.1    45    1.1   334     2.6   903.4    0.00 
 263    6:50   0.17   68.6    42    2.1   348     4.2   903.4    0.00 
 263    7:00   0.20   69.1    42    3.2   344     5.5   903.3    0.00 
 263    7:10   0.23   70.7    39    3.8   307     6.5   903.4    0.00 
 263    7:20   0.26   71.9    37    4.4   324     6.6   903.3    0.00 
 263    7:30   0.29   73.5    35    4.0   315     6.7   903.2    0.00 
 263    7:40   0.32   75.1    31    4.3   307     6.6   903.3    0.00 
 263    7:50   0.35   76.8    30    4.1   298     6.1   903.3    0.00 
 263    8:00   0.38   77.9    30    5.2   318     9.9   903.2    0.00 
 263    8:10   0.41   77.9    30    5.8   330     9.1   903.1    0.00 
 263    8:20   0.43   78.1    30    7.1   336    11.6   902.9    0.00 
 263    8:30   0.46   78.6    30    6.8   334    10.2   902.8    0.00 
 263    8:40   0.48   80.1    29    6.9   338    10.2   902.7    0.00 
 263    8:50   0.51   80.9    28    7.4   332    10.1   902.6    0.00 
 263    9:00   0.53   82.0    28    7.2   340    10.9   902.6    0.00 
 263    9:10   0.56   83.3    27    6.2   336    10.4   902.6    0.00 
 263    9:20   0.58   84.1    26    6.6   347    10.3   902.5    0.00 
 263    9:30   0.60   85.1    25    5.7   346     8.7   902.5    0.00 
 263    9:40   0.63   86.3    24    3.7   343     7.1   902.5    0.00 
 263    9:50   0.66   87.8    22    1.8   324     4.8   902.5    0.00 
 263   10:00   0.37   87.4    22    2.7   327     5.7   902.4    0.00 
 263   10:10   0.61   88.4    22    1.6   127     4.1   902.3    0.00 
 263   10:20   0.71   89.1    21    2.0   250     6.1   902.3    0.00 
 263   10:30   0.72   90.5    20    1.2    71     2.9   902.2    0.00 
 263   10:40   0.71   91.2    20    3.2   193     6.4   902.1    0.00 
 263   10:50   0.71   91.2    21    3.8   176     6.6   902.1    0.00 
 263   11:00   0.72   91.3    20    2.8   180     6.2   901.9    0.00 
 263   11:10   0.69   91.4    21    3.5   183     8.1   901.8    0.00 
 263   11:20   0.66   91.5    20    3.6   170     7.2   901.7    0.00 
 263   11:30   0.59   91.9    21    4.3   181     9.9   901.6    0.00 
 263   11:40   0.49   91.3    20    3.3   165     8.3   901.4    0.00 
 263   11:50   0.44   92.0    20    1.8   180     4.0   901.3    0.00 
 263   12:00   0.43   92.0    21    3.5   185     6.9   901.1    0.00 
 263   12:10   0.47   91.4    22    4.1   177     6.5   900.9    0.00 
 263   12:20   0.43   91.8    21    3.0   156     5.8   900.7    0.00 
 263   12:30   0.75   93.5    18    2.8   187     7.9   900.4    0.00 
 263   12:40   0.71   94.0    19    4.5   164    11.5   900.2    0.00 
 263   12:50   0.66   93.2    20    6.2   161    10.5   900.1    0.00 
 263   13:00   0.57   92.7    19    5.3   168    10.9   900.0    0.00 
 263   13:10   0.70   93.9    18    5.4   160    11.3   899.8    0.00 
 263   13:20   0.69   93.5    18    9.2   150    14.1   899.8    0.00 
 263   13:30   0.65   93.4    19    7.0   165    14.4   899.7    0.00 
 263   13:40   0.65   93.7    19    7.9   168    13.6   899.5    0.00 
 263   13:50   0.60   93.6    19    6.7   163    13.0   899.4    0.00 
 263   14:00   0.61   94.1    18    6.9   156    13.6   899.3    0.00 
 263   14:10   0.58   94.1    18    7.5   141    18.8   899.1    0.00 
 263   14:20   0.25   92.4    20    5.5   148    11.1   899.1    0.00 
 263   14:30   0.21   89.3    23    6.4   152    11.8   899.0    0.00 
 263   14:40   0.17   88.7    24    5.3   160     8.4   898.8    0.00 
 263   14:50   0.17   88.1    23    7.5   149    11.7   898.6    0.00 
 263   15:00   0.14   87.7    24    5.6   171    10.5   898.5    0.00 
 263   15:10   0.11   86.4    26    5.7   167    10.8   898.5    0.00 
 263   15:20   0.12   85.9    27    5.0   161     7.7   898.3    0.00 
 263   15:30   0.37   87.9    24    6.3   142     9.8   898.2    0.00 
 263   15:40   0.27   91.4    20    7.6   143    11.4   898.3    0.00 
 263   15:50   0.06   88.3    22    7.5   141    11.4   898.4    0.00 
 263   16:00   0.03   87.0    22    8.2   150    11.8   898.3    0.00 
 263   16:10   0.02   84.3    26    6.6   156     8.8   898.5    0.00 
 263   16:20   0.02   83.9    25    5.5   182    12.6   898.5    0.00 
 263   16:30   0.01   83.2    28   11.2   209    19.6   898.5    0.00 
 263   16:40   0.02   82.9    28    8.1   205    13.1   898.5    0.00 
 263   16:50   0.04   83.3    27    7.4   205    13.4   898.3    0.00 
 263   17:00   0.02   82.4    30    6.0   193    10.2   898.6    0.00 
 263   17:10   0.01   78.5    43    8.1   173    16.0   899.0    0.01 
 263   17:20   0.01   72.5    63    5.9    94    10.5   899.1    0.00 
 263   17:30   0.01   71.1    67    6.9   104    11.8   899.5    0.00 
 263   17:40   0.00   71.8    66    8.9   106    13.4   900.0    0.00 
 263   17:50   0.00   67.8    79   11.6   152    32.8   901.3    0.23 
 263   18:00   0.00   64.8    84    3.9    98     9.5   901.0    0.02 
 263   18:10   0.00   66.4    82    7.5    74    14.8   901.1    0.00 
 263   18:20   0.00   67.0    81    4.3   164     9.8   901.9    0.01 
 263   18:30   0.00   66.7    83    3.9   118     8.8   902.5    0.04 
 263   18:40   0.00   66.2    85    0.9   150     2.9   902.4    0.01 
 263   18:50   0.00   65.4    87    2.6   305     5.6   902.7    0.00 
 263   19:00   0.00   65.3    89    4.7   357     6.8   902.4    0.01 
 263   19:10   0.00   65.7    89    4.0     1     5.6   902.3    0.00 
 263   19:20   0.00   65.7    88    3.7   329     5.3   902.2    0.00 
 263   19:30   0.00   65.2    89    1.1   290     2.3   902.2    0.00 
 263   19:40   0.00   64.9    90    2.7   234     4.5   902.1    0.00 
 263   19:50   0.00   65.5    90    1.0    79     2.3   902.2    0.00 
 263   20:00   0.00   66.0    90    0.8     8     2.9   902.3    0.00 
 263   20:10   0.00   67.1    85    2.5   314     3.7   902.4    0.00 
 263   20:20   0.00   66.4    86    2.8   274     3.9   902.7    0.00 
 263   20:30   0.00   65.7    87    2.9   315     4.0   902.8    0.00 
 263   20:40   0.00   65.4    89    2.1   254     3.8   903.1    0.00 
 263   20:50   0.00   66.3    86    5.8   312    10.3   902.9    0.01 
 263   21:00   0.00   66.8    83    7.1     8    11.6   902.6    0.00 
 263   21:10   0.00   67.7    81    3.8    32     7.2   903.3    0.00 
 263   21:20   0.00   67.7    81    5.5    16     7.8   903.0    0.00 
 263   21:30   0.00   67.6    80    6.2   317    11.2   902.9    0.00 
 263   21:40   0.00   66.8    83    6.4   304    10.9   903.0    0.00 
 263   21:50   0.00   66.8    83    7.6   348    12.2   902.7    0.00 
 263   22:00   0.00   67.3    83    5.6    16    10.2   903.3    0.00 
 263   22:10   0.00   67.8    81    8.4     6    15.2   903.1    0.00 
 263   22:20   0.00   67.5    82    5.2   304     9.2   903.9    0.00 
 263   22:30   0.00   66.7    84    5.2   306     7.7   904.3    0.02 
 263   22:40   0.00   66.2    85   10.2   353    15.7   903.1    0.01 
 263   22:50   0.00   65.5    86    5.1   328    11.2   903.6    0.01 
 263   23:00   0.00   65.6    86    6.3   356    10.3   903.8    0.00 
 263   23:10   0.00   65.8    85    6.7   340    10.6   904.1    0.00 
 263   23:20   0.00   65.4    86    7.7   339    11.3   904.0    0.00 
 263   23:30   0.00   65.3    86    8.0   339    12.6   903.8    0.00 
 263   23:40   0.00   65.5    85    9.2   324    15.6   903.5    0.00 
 263   23:50   0.00   65.2    86    9.9   337    15.5   903.2    0.03 
 264    0:00   0.00   64.9    87    6.3   310    12.3   903.7    0.03 
 264    0:10   0.00   64.6    87    6.4   347    11.0   903.7    0.03 
 264    0:20   0.00   64.5    89    4.5    44     7.2   904.4    0.00 
 264    0:30   0.00   65.0    87    3.6   357     7.1   904.8    0.00 
 264    0:40   0.00   64.8    86    7.2   351    12.2   904.4    0.01 
 264    0:50   0.00   64.3    87   11.6   353    16.7   903.1    0.03 
 264    1:00   0.00   64.6    85    8.5     4    16.4   903.6    0.01 
 264    1:10   0.00   65.0    85    6.7     9    15.1   904.5    0.00 
 264    1:20   0.00   64.6    86    8.6   353    14.9   903.8    0.01 
 264    1:30   0.00   64.2    87    7.7   338    11.5   903.7    0.00 
 264    1:40   0.00   63.7    89    6.5   315     9.5   903.4    0.01 
 264    1:50   0.00   63.8    88    6.0   308    11.5   903.8    0.00 
 264    2:00   0.00   64.0    87    2.7     9     5.6   904.1    0.01 
 264    2:10   0.00   64.0    87    4.8    32     9.9   903.7    0.01 
 264    2:20   0.00   63.9    88    1.6   352     6.6   904.0    0.01 
 264    2:30   0.00   63.4    89    5.2   335     7.3   903.5    0.00 
 264    2:40   0.00   63.1    90    2.3     0     5.9   903.7    0.00 
 264    2:50   0.00   63.2    90    3.4   357     5.0   903.6    0.00 
 264    3:00   0.00   63.0    89    3.1   340     5.0   903.5    0.00 
 264    3:10   0.00   63.0    89    2.8    12     7.7   903.8    0.00 
 264    3:20   0.00   63.9    86    4.7     5     7.8   903.8    0.00 
 264    3:30   0.00   63.3    86    5.0   334     8.4   903.5    0.00 
 264    3:40   0.00   62.0    87    2.0   305     3.7   903.5    0.00 

Return to Pahranagat N. Wildlife Refuge graphs page.


Western Regional Climate Center,wrcc@dri.edu